Terminal Aerodrome Forecast
Issued by NWS

Home | Current Version | Previous Version | Graphics & Text | Print | Product List | Glossary On
Versions: 1 2 3 4 5 6 7 8 9 10 11 12 13 14 15 16
000
FTUS43 KIWX 261730
TAFSBN
TAF
KSBN 261730Z 2618/2718 36009KT P6SM BKN010 OVC027
     FM270100 34004KT P6SM SCT020 BKN040
     FM270700 00000KT 3SM BR SCT150
      TEMPO 2710/2713 1/2SM FG BKN005
     FM271400 VRB04KT P6SM SCT150=

USA.gov is the U.S. government's official web portal to all federal, state and local government web resources and services.